createdAt,value
2018-08-12T00:00:09.940Z,14.35
2018-08-12T00:01:10.032Z,14.31
2018-08-12T00:02:10.150Z,14.31
2018-08-12T00:03:10.245Z,14.31
2018-08-12T00:04:10.339Z,14.27
2018-08-12T00:05:10.431Z,14.25
2018-08-12T00:06:10.513Z,14.24
2018-08-12T00:07:10.635Z,14.16
2018-08-12T00:08:10.692Z,14.17
2018-08-12T00:09:10.783Z,14.16
2018-08-12T00:10:10.887Z,14.12
2018-08-12T00:11:10.975Z,14.13
2018-08-12T00:12:11.071Z,14.17
2018-08-12T00:13:11.171Z,14.14
2018-08-12T00:14:11.258Z,14.14
2018-08-12T00:15:11.363Z,14.12
2018-08-12T00:16:11.450Z,14.14
2018-08-12T00:17:11.546Z,14.16
2018-08-12T00:18:11.646Z,14.13
2018-08-12T00:19:11.740Z,14.13
2018-08-12T00:20:11.837Z,14.17
2018-08-12T00:21:11.936Z,14.06
2018-08-12T00:22:12.033Z,14.19
2018-08-12T00:23:12.127Z,14.09
2018-08-12T00:24:12.224Z,14.14
2018-08-12T00:25:12.314Z,14.02
2018-08-12T00:26:12.401Z,14.09
2018-08-12T00:27:12.500Z,14.13
2018-08-12T00:28:12.603Z,14.02
2018-08-12T00:29:12.697Z,14.01
2018-08-12T00:30:12.789Z,14.09
2018-08-12T00:31:12.889Z,14.04
2018-08-12T00:32:12.999Z,14.02
2018-08-12T00:33:13.094Z,13.96
2018-08-12T00:34:13.188Z,13.96
2018-08-12T00:35:13.282Z,13.98
2018-08-12T00:36:13.376Z,14.04
2018-08-12T00:37:13.473Z,13.89
2018-08-12T00:38:13.566Z,13.89
2018-08-12T00:39:13.663Z,13.81
2018-08-12T00:40:13.759Z,13.81
2018-08-12T00:41:13.853Z,13.81
2018-08-12T00:42:13.948Z,13.81
2018-08-12T00:43:14.044Z,13.77
2018-08-12T00:44:14.137Z,13.70
2018-08-12T00:45:14.232Z,13.77
2018-08-12T00:46:14.334Z,13.76
2018-08-12T00:47:14.427Z,13.71
2018-08-12T00:48:14.520Z,13.77
2018-08-12T00:49:14.617Z,13.73
2018-08-12T00:50:14.712Z,13.70
2018-08-12T00:51:14.807Z,13.65
2018-08-12T00:52:14.904Z,13.58
2018-08-12T00:53:15.000Z,13.59
2018-08-12T00:54:15.097Z,13.54
2018-08-12T00:55:15.191Z,13.51
2018-08-12T00:56:15.285Z,13.52
2018-08-12T00:57:15.390Z,13.59
2018-08-12T00:58:15.478Z,13.55
2018-08-12T00:59:15.584Z,13.46
2018-08-12T01:00:15.682Z,13.56
2018-08-12T01:01:15.776Z,13.54
2018-08-12T01:02:15.872Z,13.51
2018-08-12T01:03:15.967Z,13.49
2018-08-12T01:04:16.062Z,13.51
2018-08-12T01:05:16.161Z,13.61
2018-08-12T01:06:16.255Z,13.59
2018-08-12T01:07:16.357Z,13.54
2018-08-12T01:08:16.449Z,13.51
2018-08-12T01:09:16.544Z,13.55
2018-08-12T01:10:16.640Z,13.51
2018-08-12T01:11:16.736Z,13.54
2018-08-12T01:12:16.829Z,13.56
2018-08-12T01:13:16.926Z,13.54
2018-08-12T01:14:17.021Z,13.43
2018-08-12T01:15:17.115Z,13.43
2018-08-12T01:16:17.209Z,13.43
2018-08-12T01:17:17.305Z,13.41
2018-08-12T01:18:17.399Z,13.46
2018-08-12T01:19:17.493Z,13.38
2018-08-12T01:20:17.589Z,13.41
2018-08-12T01:21:17.685Z,13.43
2018-08-12T01:22:17.779Z,13.41
2018-08-12T01:23:17.871Z,13.36
2018-08-12T01:24:17.968Z,13.33
2018-08-12T01:25:18.064Z,13.27
2018-08-12T01:26:18.162Z,13.36
2018-08-12T01:27:18.259Z,13.33
2018-08-12T01:28:18.352Z,13.30
2018-08-12T01:29:18.444Z,13.27
2018-08-12T01:30:18.535Z,13.15
2018-08-12T01:31:18.635Z,13.12
2018-08-12T01:32:18.730Z,13.17
2018-08-12T01:33:18.825Z,13.21
2018-08-12T01:34:18.931Z,13.07
2018-08-12T01:35:19.027Z,13.09
2018-08-12T01:36:19.122Z,13.12
2018-08-12T01:37:19.217Z,13.09
2018-08-12T01:38:19.313Z,12.99
2018-08-12T01:39:19.415Z,13.07
2018-08-12T01:40:19.506Z,13.02
2018-08-12T01:41:19.600Z,12.95
2018-08-12T01:42:19.694Z,13.06
2018-08-12T01:43:19.788Z,12.99
2018-08-12T01:44:19.889Z,13.04
2018-08-12T01:45:19.982Z,12.97
2018-08-12T01:46:20.082Z,12.99
2018-08-12T01:47:20.174Z,12.97
2018-08-12T01:48:20.269Z,12.97
2018-08-12T01:49:20.360Z,12.96
2018-08-12T01:50:20.456Z,12.97
2018-08-12T01:51:20.551Z,13.04
2018-08-12T01:52:20.644Z,12.96
2018-08-12T01:53:20.738Z,12.96
2018-08-12T01:54:20.829Z,12.96
2018-08-12T01:55:20.923Z,12.92
2018-08-12T01:56:21.019Z,13.00
2018-08-12T01:57:21.118Z,12.95
2018-08-12T01:58:21.209Z,12.96
2018-08-12T01:59:21.303Z,12.89
2018-08-12T02:00:21.399Z,12.85
2018-08-12T02:01:21.496Z,12.85
2018-08-12T02:02:21.592Z,12.88
2018-08-12T02:03:21.684Z,12.81
2018-08-12T02:04:21.780Z,12.78
2018-08-12T02:05:21.873Z,12.89
2018-08-12T02:06:21.970Z,12.78
2018-08-12T02:07:22.061Z,12.78
2018-08-12T02:08:22.154Z,12.78
2018-08-12T02:09:22.252Z,12.71
2018-08-12T02:10:22.348Z,12.71
2018-08-12T02:11:22.444Z,12.70
2018-08-12T02:12:22.537Z,12.69
2018-08-12T02:13:22.630Z,12.70
2018-08-12T02:14:22.724Z,12.78
2018-08-12T02:15:22.819Z,12.67
2018-08-12T02:16:22.913Z,12.74
2018-08-12T02:17:23.009Z,12.70
2018-08-12T02:18:23.102Z,12.70
2018-08-12T02:19:23.196Z,12.57
2018-08-12T02:20:23.294Z,12.60
2018-08-12T02:21:23.389Z,12.52
2018-08-12T02:22:23.482Z,12.57
2018-08-12T02:23:23.577Z,12.60
2018-08-12T02:24:23.674Z,12.60
2018-08-12T02:25:23.768Z,12.51
2018-08-12T02:26:23.868Z,12.49
2018-08-12T02:27:23.957Z,12.51
2018-08-12T02:28:24.049Z,12.45
2018-08-12T02:29:24.146Z,12.39
2018-08-12T02:30:24.238Z,12.42
2018-08-12T02:31:24.332Z,12.38
2018-08-12T02:32:24.432Z,12.42
2018-08-12T02:33:24.538Z,12.42
2018-08-12T02:34:24.635Z,12.34
2018-08-12T02:35:24.728Z,12.44
2018-08-12T02:36:24.819Z,12.38
2018-08-12T02:37:24.918Z,12.44
2018-08-12T02:38:25.024Z,12.34
2018-08-12T02:39:25.119Z,12.37
2018-08-12T02:40:25.206Z,12.39
2018-08-12T02:41:25.300Z,12.46
2018-08-12T02:42:25.393Z,12.41
2018-08-12T02:43:25.487Z,12.31
2018-08-12T02:44:25.591Z,12.08
2018-08-12T02:45:25.675Z,12.21
2018-08-12T02:46:25.775Z,12.20
2018-08-12T02:47:25.864Z,12.24
2018-08-12T02:48:25.960Z,12.24
2018-08-12T02:49:26.054Z,12.26
2018-08-12T02:50:26.157Z,12.09
2018-08-12T02:51:26.239Z,12.20
2018-08-12T02:52:26.335Z,12.15
2018-08-12T02:53:26.430Z,12.08
2018-08-12T02:54:26.527Z,12.12
2018-08-12T02:55:26.619Z,12.08
2018-08-12T02:56:26.713Z,12.16
2018-08-12T02:57:26.808Z,12.11
2018-08-12T02:58:26.903Z,12.09
2018-08-12T02:59:26.997Z,12.11
2018-08-12T03:00:27.090Z,12.09
2018-08-12T03:01:27.184Z,12.13
2018-08-12T03:02:27.280Z,12.05
2018-08-12T03:03:27.380Z,12.08
2018-08-12T03:04:27.476Z,12.06
2018-08-12T03:05:27.571Z,12.05
2018-08-12T03:06:27.665Z,12.11
2018-08-12T03:07:27.760Z,12.08
2018-08-12T03:08:27.850Z,12.11
2018-08-12T03:09:27.947Z,11.94
2018-08-12T03:10:28.051Z,11.99
2018-08-12T03:11:28.137Z,11.96
2018-08-12T03:12:28.232Z,11.97
2018-08-12T03:13:28.327Z,12.01
2018-08-12T03:14:28.417Z,11.99
2018-08-12T03:15:28.515Z,11.96
2018-08-12T03:16:28.608Z,11.89
2018-08-12T03:17:28.702Z,11.93
2018-08-12T03:18:28.795Z,11.89
2018-08-12T03:19:28.891Z,11.83
2018-08-12T03:20:28.985Z,11.77
2018-08-12T03:21:29.083Z,11.93
2018-08-12T03:22:29.216Z,11.86
2018-08-12T03:23:29.277Z,11.90
2018-08-12T03:24:29.364Z,11.83
2018-08-12T03:25:29.458Z,11.77
2018-08-12T03:26:29.550Z,11.70
2018-08-12T03:27:29.645Z,11.83
2018-08-12T03:28:29.741Z,11.78
2018-08-12T03:29:29.833Z,11.83
2018-08-12T03:30:29.931Z,11.78
2018-08-12T03:31:30.026Z,11.71
2018-08-12T03:32:30.116Z,11.77
2018-08-12T03:33:30.213Z,11.78
2018-08-12T03:34:30.307Z,11.75
2018-08-12T03:35:30.399Z,11.80
2018-08-12T03:36:30.494Z,11.75
2018-08-12T03:37:30.590Z,11.65
2018-08-12T03:38:30.683Z,11.78
2018-08-12T03:39:30.778Z,11.65
2018-08-12T03:40:30.875Z,11.75
2018-08-12T03:41:30.969Z,11.74
2018-08-12T03:42:31.078Z,11.68
2018-08-12T03:43:31.159Z,11.62
2018-08-12T03:44:31.252Z,11.67
2018-08-12T03:45:31.348Z,11.64
2018-08-12T03:46:31.444Z,11.56
2018-08-12T03:47:31.541Z,11.65
2018-08-12T03:48:31.635Z,11.50
2018-08-12T03:49:31.728Z,11.57
2018-08-12T03:50:31.821Z,11.46
2018-08-12T03:51:31.918Z,11.49
2018-08-12T03:52:32.015Z,11.52
2018-08-12T03:53:32.109Z,11.41
2018-08-12T03:54:32.207Z,11.44
2018-08-12T03:55:32.302Z,11.41
2018-08-12T03:56:32.396Z,11.43
2018-08-12T03:57:32.492Z,11.41
2018-08-12T03:58:32.594Z,11.41
2018-08-12T03:59:32.688Z,11.36
2018-08-12T04:00:32.781Z,11.46
2018-08-12T04:01:32.875Z,11.41
2018-08-12T04:02:32.972Z,11.41
2018-08-12T04:03:33.067Z,11.47
2018-08-12T04:04:33.161Z,11.39
2018-08-12T04:05:33.253Z,11.46
2018-08-12T04:06:33.346Z,11.46
2018-08-12T04:07:33.431Z,11.53
2018-08-12T04:08:33.519Z,11.43
2018-08-12T04:09:33.613Z,11.46
2018-08-12T04:10:33.688Z,11.41
2018-08-12T04:11:33.775Z,11.52
2018-08-12T04:12:33.871Z,11.50
2018-08-12T04:13:33.974Z,11.47
2018-08-12T04:14:34.078Z,11.38
2018-08-12T04:15:34.166Z,11.44
2018-08-12T04:16:34.256Z,11.50
2018-08-12T04:17:34.376Z,11.47
2018-08-12T04:18:34.477Z,11.49
2018-08-12T04:19:34.563Z,11.44
2018-08-12T04:20:34.656Z,11.61
2018-08-12T04:21:34.755Z,11.50
2018-08-12T04:22:34.846Z,11.53
2018-08-12T04:23:34.939Z,11.54
2018-08-12T04:24:35.033Z,11.64
2018-08-12T04:25:35.152Z,11.56
2018-08-12T04:26:35.219Z,11.46
2018-08-12T04:27:35.312Z,11.54
2018-08-12T04:28:35.408Z,11.52
2018-08-12T04:29:35.502Z,11.41
2018-08-12T04:30:35.584Z,11.54
2018-08-12T04:31:35.678Z,11.53
2018-08-12T04:32:35.768Z,11.50
2018-08-12T04:33:35.858Z,11.43
2018-08-12T04:34:35.967Z,11.41
2018-08-12T04:35:36.064Z,11.46
2018-08-12T04:36:36.164Z,11.52
2018-08-12T04:37:36.238Z,11.62
2018-08-12T04:38:36.330Z,11.59
2018-08-12T04:39:36.427Z,11.74
2018-08-12T04:40:36.516Z,11.70
2018-08-12T04:41:36.604Z,11.62
2018-08-12T04:42:36.694Z,11.74
2018-08-12T04:43:36.772Z,11.74
2018-08-12T04:44:36.857Z,11.77
2018-08-12T04:45:36.949Z,11.67
2018-08-12T04:46:37.037Z,11.89
2018-08-12T04:47:37.131Z,11.85
2018-08-12T04:48:37.223Z,11.82
2018-08-12T04:49:37.322Z,11.77
2018-08-12T04:50:37.411Z,11.97
2018-08-12T04:51:37.502Z,11.99
2018-08-12T04:52:37.592Z,11.93
2018-08-12T04:53:37.693Z,11.94
2018-08-12T04:54:37.778Z,12.01
2018-08-12T04:55:37.868Z,11.96
2018-08-12T04:56:37.961Z,11.90
2018-08-12T04:57:38.064Z,12.05
2018-08-12T04:58:38.160Z,12.13
2018-08-12T04:59:38.248Z,12.16
2018-08-12T05:00:38.340Z,12.16
2018-08-12T05:01:38.419Z,12.15
2018-08-12T05:02:38.512Z,12.15
2018-08-12T05:03:38.601Z,12.16
2018-08-12T05:04:38.696Z,12.15
2018-08-12T05:05:38.793Z,12.16
2018-08-12T05:06:38.889Z,12.27
2018-08-12T05:07:38.983Z,12.26
2018-08-12T05:08:39.081Z,12.23
2018-08-12T05:09:39.166Z,12.33
2018-08-12T05:10:39.258Z,12.29
2018-08-12T05:11:39.371Z,12.21
2018-08-12T05:12:39.458Z,12.26
2018-08-12T05:13:39.551Z,12.38
2018-08-12T05:14:39.642Z,12.46
2018-08-12T05:15:39.752Z,12.42
2018-08-12T05:16:39.846Z,12.31
2018-08-12T05:17:41.210Z,12.41
2018-08-12T05:18:40.093Z,12.44
2018-08-12T05:19:40.185Z,12.39
2018-08-12T05:20:40.283Z,12.45
2018-08-12T05:21:40.363Z,12.41
2018-08-12T05:22:40.469Z,12.39
2018-08-12T05:23:40.563Z,12.46
2018-08-12T05:24:40.663Z,12.54
2018-08-12T05:25:40.756Z,12.56
2018-08-12T05:26:40.840Z,12.54
2018-08-12T05:27:40.946Z,12.57
2018-08-12T05:28:41.052Z,12.49
2018-08-12T05:29:41.154Z,12.57
2018-08-12T05:30:41.250Z,12.59
2018-08-12T05:31:41.345Z,12.56
2018-08-12T05:32:41.445Z,12.70
2018-08-12T05:33:41.535Z,12.67
2018-08-12T05:34:41.648Z,12.69
2018-08-12T05:35:41.741Z,12.71
2018-08-12T05:36:41.834Z,12.64
2018-08-12T05:37:41.942Z,12.71
2018-08-12T05:38:42.039Z,12.70
2018-08-12T05:39:42.134Z,12.79
2018-08-12T05:40:42.230Z,12.75
2018-08-12T05:41:42.317Z,12.82
2018-08-12T05:42:42.414Z,12.78
2018-08-12T05:43:42.503Z,12.71
2018-08-12T05:44:42.604Z,12.74
2018-08-12T05:45:42.693Z,12.81
2018-08-12T05:46:42.789Z,12.92
2018-08-12T05:47:42.884Z,12.88
2018-08-12T05:48:42.980Z,12.92
2018-08-12T05:49:43.075Z,12.97
2018-08-12T05:50:43.171Z,12.88
2018-08-12T05:51:43.263Z,12.97
2018-08-12T05:52:43.354Z,13.03
2018-08-12T05:53:43.450Z,13.00
2018-08-12T05:54:43.544Z,13.09
2018-08-12T05:55:43.646Z,13.03
2018-08-12T05:56:43.735Z,13.06
2018-08-12T05:57:43.834Z,13.18
2018-08-12T05:58:43.940Z,13.25
2018-08-12T05:59:44.031Z,13.14
2018-08-12T06:00:44.124Z,13.22
2018-08-12T06:01:44.217Z,13.32
2018-08-12T06:02:44.333Z,13.36
2018-08-12T06:03:44.413Z,13.41
2018-08-12T06:04:44.512Z,13.43
2018-08-12T06:05:44.609Z,13.58
2018-08-12T06:06:44.704Z,13.69
2018-08-12T06:07:44.799Z,13.80
2018-08-12T06:08:44.936Z,14.04
2018-08-12T06:09:44.992Z,14.32
2018-08-12T06:10:45.086Z,14.75
2018-08-12T06:11:45.189Z,15.24
2018-08-12T06:12:45.283Z,15.64
2018-08-12T06:13:45.376Z,16.22
2018-08-12T06:14:45.475Z,16.73
2018-08-12T06:15:45.568Z,17.32
2018-08-12T06:16:45.661Z,17.74
2018-08-12T06:17:45.762Z,18.12
2018-08-12T06:18:45.854Z,18.50
2018-08-12T06:19:45.946Z,19.10
2018-08-12T06:20:46.043Z,19.20
2018-08-12T06:21:46.131Z,19.66
2018-08-12T06:22:46.235Z,19.94
2018-08-12T06:23:46.332Z,20.30
2018-08-12T06:24:46.426Z,20.54
2018-08-12T06:25:46.564Z,20.80
2018-08-12T06:26:46.624Z,21.02
2018-08-12T06:27:46.747Z,21.04
2018-08-12T06:28:46.851Z,21.04
2018-08-12T06:29:46.953Z,21.21
2018-08-12T06:30:47.061Z,21.48
2018-08-12T06:31:47.164Z,21.63
2018-08-12T06:32:47.262Z,21.53
2018-08-12T06:33:47.355Z,21.32
2018-08-12T06:34:47.462Z,21.23
2018-08-12T06:35:47.563Z,21.13
2018-08-12T06:36:47.665Z,21.13
2018-08-12T06:37:47.764Z,21.06
2018-08-12T06:38:47.864Z,21.04
2018-08-12T06:39:48.041Z,21.14
2018-08-12T06:40:48.064Z,21.14
2018-08-12T06:41:48.169Z,21.08
2018-08-12T06:42:48.268Z,21.04
2018-08-12T06:43:48.368Z,20.98
2018-08-12T06:44:48.471Z,20.86
2018-08-12T06:45:48.569Z,20.86
2018-08-12T06:46:48.657Z,20.83
2018-08-12T06:47:48.771Z,20.61
2018-08-12T06:48:48.881Z,20.65
2018-08-12T06:49:48.982Z,20.66
2018-08-12T06:50:49.086Z,20.65
2018-08-12T06:51:49.252Z,20.62
2018-08-12T06:52:49.290Z,20.69
2018-08-12T06:53:49.388Z,20.81
2018-08-12T06:54:49.491Z,20.83
2018-08-12T06:55:49.592Z,20.68
2018-08-12T06:56:49.692Z,20.84
2018-08-12T06:57:49.792Z,20.66
2018-08-12T06:58:49.890Z,20.79
2018-08-12T06:59:49.996Z,20.74
2018-08-12T07:00:50.094Z,20.76
2018-08-12T07:01:50.193Z,20.79
2018-08-12T07:02:50.302Z,20.76
2018-08-12T07:03:50.402Z,20.79
2018-08-12T07:04:50.501Z,20.83
2018-08-12T07:05:50.600Z,20.68
2018-08-12T07:06:50.699Z,20.56
2018-08-12T07:07:50.798Z,20.53
2018-08-12T07:08:50.898Z,20.38
2018-08-12T07:09:51.015Z,20.41
2018-08-12T07:10:51.112Z,20.27
2018-08-12T07:11:51.216Z,20.27
2018-08-12T07:12:51.317Z,20.23
2018-08-12T07:13:51.415Z,20.24
2018-08-12T07:14:51.515Z,20.21
2018-08-12T07:15:51.614Z,20.08
2018-08-12T07:16:51.725Z,20.03
2018-08-12T07:17:51.829Z,20.15
2018-08-12T07:18:51.925Z,20.05
2018-08-12T07:19:52.024Z,20.05
2018-08-12T07:20:52.121Z,20.12
2018-08-12T07:21:52.218Z,20.13
2018-08-12T07:22:52.316Z,20.16
2018-08-12T07:23:52.418Z,20.10
2018-08-12T07:24:52.516Z,20.05
2018-08-12T07:25:52.613Z,20.16
2018-08-12T07:26:52.711Z,20.12
2018-08-12T07:27:52.807Z,20.23
2018-08-12T07:28:52.907Z,20.23
2018-08-12T07:29:53.007Z,20.24
2018-08-12T07:30:53.105Z,20.27
2018-08-12T07:31:53.199Z,20.33
2018-08-12T07:32:53.313Z,20.28
2018-08-12T07:33:53.394Z,20.31
2018-08-12T07:34:53.495Z,20.31
2018-08-12T07:35:53.593Z,20.34
2018-08-12T07:36:53.693Z,20.50
2018-08-12T07:37:53.794Z,20.58
2018-08-12T07:38:53.890Z,20.53
2018-08-12T07:39:53.989Z,20.53
2018-08-12T07:40:54.089Z,20.56
2018-08-12T07:41:54.194Z,20.59
2018-08-12T07:42:54.285Z,20.56
2018-08-12T07:43:54.390Z,20.58
2018-08-12T07:44:54.478Z,20.59
2018-08-12T07:45:54.578Z,20.50
2018-08-12T07:46:54.674Z,20.51
2018-08-12T07:47:54.772Z,20.47
2018-08-12T07:48:54.887Z,20.51
2018-08-12T07:49:54.968Z,20.56
2018-08-12T07:50:55.065Z,20.54
2018-08-12T07:51:55.166Z,20.46
2018-08-12T07:52:55.259Z,20.49
2018-08-12T07:53:55.358Z,20.53
2018-08-12T07:54:55.456Z,20.53
2018-08-12T07:55:55.551Z,20.46
2018-08-12T07:56:55.651Z,20.53
2018-08-12T07:57:55.736Z,20.47
2018-08-12T07:58:55.832Z,20.49
2018-08-12T07:59:55.932Z,20.59
2018-08-12T08:00:56.036Z,20.56
2018-08-12T08:01:56.128Z,20.61
2018-08-12T08:02:56.226Z,20.64
2018-08-12T08:03:56.327Z,20.69
2018-08-12T08:04:56.423Z,20.53
2018-08-12T08:05:56.521Z,20.58
2018-08-12T08:06:56.617Z,20.69
2018-08-12T08:07:56.717Z,20.86
2018-08-12T08:08:56.815Z,20.84
2018-08-12T08:09:56.914Z,20.87
2018-08-12T08:10:57.028Z,20.95
2018-08-12T08:11:57.126Z,21.01
2018-08-12T08:12:57.223Z,21.13
2018-08-12T08:13:57.326Z,21.11
2018-08-12T08:14:57.421Z,21.20
2018-08-12T08:15:57.519Z,21.26
2018-08-12T08:16:57.617Z,21.32
2018-08-12T08:17:57.737Z,21.44
2018-08-12T08:18:57.833Z,21.50
2018-08-12T08:19:57.936Z,21.51
2018-08-12T08:20:58.036Z,21.59
2018-08-12T08:21:58.130Z,21.64
2018-08-12T08:22:58.232Z,21.66
2018-08-12T08:23:58.327Z,21.72
2018-08-12T08:24:58.449Z,21.69
2018-08-12T08:25:58.598Z,21.71
2018-08-12T08:26:58.641Z,21.75
2018-08-12T08:27:58.739Z,21.90
2018-08-12T08:28:58.838Z,21.90
2018-08-12T08:29:58.941Z,21.97
2018-08-12T08:30:59.034Z,21.64
2018-08-12T08:31:59.295Z,21.59
2018-08-12T08:32:59.234Z,21.71
2018-08-12T08:33:59.334Z,21.72
2018-08-12T08:34:59.429Z,21.76
2018-08-12T08:35:59.533Z,21.97
2018-08-12T08:36:59.636Z,22.09
2018-08-12T08:37:59.753Z,22.19
2018-08-12T08:38:59.832Z,22.02
2018-08-12T08:39:59.934Z,22.19
2018-08-12T08:41:00.032Z,22.34
2018-08-12T08:42:00.129Z,22.46
2018-08-12T08:43:00.228Z,22.43
2018-08-12T08:44:00.381Z,22.57
2018-08-12T08:45:00.426Z,22.65
2018-08-12T08:46:00.517Z,22.69
2018-08-12T08:47:00.615Z,22.75
2018-08-12T08:48:00.712Z,22.92
2018-08-12T08:49:00.813Z,22.94
2018-08-12T08:50:00.956Z,23.04
2018-08-12T08:51:01.008Z,23.11
2018-08-12T08:52:01.108Z,23.14
2018-08-12T08:53:01.209Z,23.22
2018-08-12T08:54:01.307Z,23.32
2018-08-12T08:55:01.413Z,23.38
2018-08-12T08:56:01.507Z,23.26
2018-08-12T08:57:01.603Z,23.26
2018-08-12T08:58:01.702Z,23.24
2018-08-12T08:59:01.818Z,23.39
2018-08-12T09:00:01.915Z,23.46
2018-08-12T09:01:02.012Z,23.50
2018-08-12T09:02:02.117Z,23.64
2018-08-12T09:03:02.209Z,23.57
2018-08-12T09:04:02.310Z,23.55
2018-08-12T09:05:02.409Z,23.50
2018-08-12T09:06:02.530Z,23.65
2018-08-12T09:07:02.630Z,23.68
2018-08-12T09:08:02.819Z,23.62
2018-08-12T09:09:03.066Z,23.72
2018-08-12T09:10:02.932Z,23.76
2018-08-12T09:11:03.030Z,23.71
2018-08-12T09:12:03.131Z,23.79
2018-08-12T09:13:03.238Z,23.71
2018-08-12T09:14:03.336Z,23.80
2018-08-12T09:15:03.438Z,23.79
2018-08-12T09:16:03.551Z,23.68
2018-08-12T09:17:03.631Z,23.76
2018-08-12T09:18:03.740Z,23.89
2018-08-12T09:19:03.835Z,24.00
2018-08-12T09:20:03.936Z,24.07
2018-08-12T09:21:04.040Z,24.22
2018-08-12T09:22:04.170Z,24.14
2018-08-12T09:23:04.240Z,24.10
2018-08-12T09:24:04.423Z,24.12
2018-08-12T09:25:04.425Z,24.23
2018-08-12T09:26:04.531Z,24.17
2018-08-12T09:27:04.619Z,24.31
2018-08-12T09:28:04.714Z,24.34
2018-08-12T09:29:04.808Z,24.47
2018-08-12T09:30:04.906Z,24.50
2018-08-12T09:31:05.008Z,24.64
2018-08-12T09:32:05.112Z,24.71
2018-08-12T09:33:05.211Z,24.76
2018-08-12T09:34:05.303Z,24.83
2018-08-12T09:35:05.400Z,24.79
2018-08-12T09:36:05.498Z,24.94
2018-08-12T09:37:05.601Z,24.94
2018-08-12T09:38:05.708Z,24.92
2018-08-12T09:39:05.799Z,25.00
2018-08-12T09:40:05.904Z,25.05
2018-08-12T09:41:06.031Z,25.05
2018-08-12T09:42:06.137Z,25.07
2018-08-12T09:43:06.264Z,25.12
2018-08-12T09:44:06.351Z,24.97
2018-08-12T09:45:06.445Z,25.02
2018-08-12T09:46:06.541Z,25.02
2018-08-12T09:47:06.717Z,25.24
2018-08-12T09:48:06.729Z,25.28
2018-08-12T09:49:06.827Z,25.28
2018-08-12T09:50:06.921Z,25.35
2018-08-12T09:51:07.025Z,25.44
2018-08-12T09:52:07.126Z,25.50
2018-08-12T09:53:07.228Z,25.47
2018-08-12T09:54:07.328Z,25.42
2018-08-12T09:55:07.428Z,25.65
2018-08-12T09:56:07.528Z,25.62
2018-08-12T09:57:07.626Z,25.56
2018-08-12T09:58:07.732Z,25.56
2018-08-12T09:59:07.818Z,25.59
2018-08-12T10:00:07.916Z,25.49
2018-08-12T10:01:08.021Z,25.62
2018-08-12T10:02:08.114Z,25.77
2018-08-12T10:03:08.212Z,25.68
2018-08-12T10:04:08.316Z,25.72
2018-08-12T10:05:08.441Z,25.75
2018-08-12T10:06:08.538Z,25.71
2018-08-12T10:07:08.634Z,25.79
2018-08-12T10:08:08.736Z,25.83
2018-08-12T10:09:08.875Z,25.84
2018-08-12T10:10:08.976Z,25.79
2018-08-12T10:11:09.074Z,25.59
2018-08-12T10:12:09.176Z,25.50
2018-08-12T10:13:09.286Z,25.61
2018-08-12T10:14:09.394Z,25.54
2018-08-12T10:15:09.496Z,25.61
2018-08-12T10:16:09.599Z,25.74
2018-08-12T10:17:09.699Z,25.75
2018-08-12T10:18:09.815Z,25.87
2018-08-12T10:19:09.920Z,25.99
2018-08-12T10:20:10.021Z,25.98
2018-08-12T10:21:10.125Z,26.08
2018-08-12T10:22:10.232Z,25.86
2018-08-12T10:23:10.320Z,26.02
2018-08-12T10:24:10.428Z,26.02
2018-08-12T10:25:10.527Z,26.04
2018-08-12T10:26:10.628Z,26.24
2018-08-12T10:27:10.729Z,26.24
2018-08-12T10:28:10.825Z,26.29
2018-08-12T10:29:10.956Z,26.42
2018-08-12T10:30:11.013Z,26.44
2018-08-12T10:31:11.120Z,26.49
2018-08-12T10:32:11.210Z,26.52
2018-08-12T10:33:11.311Z,26.50
2018-08-12T10:34:11.414Z,26.57
2018-08-12T10:35:11.517Z,26.59
2018-08-12T10:36:11.621Z,26.68
2018-08-12T10:37:11.728Z,26.58
2018-08-12T10:38:11.828Z,26.62
2018-08-12T10:39:11.931Z,26.59
2018-08-12T10:40:12.031Z,26.64
2018-08-12T10:41:12.148Z,26.68
2018-08-12T10:42:12.247Z,26.80
2018-08-12T10:43:12.346Z,26.55
2018-08-12T10:44:12.477Z,26.40
2018-08-12T10:45:12.551Z,26.31
2018-08-12T10:46:12.640Z,26.29
2018-08-12T10:47:12.748Z,26.32
2018-08-12T10:48:12.844Z,26.49
2018-08-12T10:49:12.937Z,26.46
2018-08-12T10:50:13.041Z,26.58
2018-08-12T10:51:13.141Z,26.59
2018-08-12T10:52:13.240Z,26.65
2018-08-12T10:53:13.345Z,26.72
2018-08-12T10:54:13.450Z,26.81
2018-08-12T10:55:13.567Z,26.87
2018-08-12T10:56:13.666Z,26.92
2018-08-12T10:57:13.772Z,27.02
2018-08-12T10:58:13.888Z,27.04
2018-08-12T10:59:14.012Z,26.96
2018-08-12T11:00:14.098Z,27.05
2018-08-12T11:01:14.198Z,27.10
2018-08-12T11:02:14.300Z,26.98
2018-08-12T11:03:14.395Z,27.06
2018-08-12T11:04:14.511Z,27.13
2018-08-12T11:05:14.634Z,27.24
2018-08-12T11:06:14.736Z,27.21
2018-08-12T11:07:14.839Z,27.19
2018-08-12T11:08:14.936Z,27.24
2018-08-12T11:09:15.040Z,27.29
2018-08-12T11:10:15.141Z,27.31
2018-08-12T11:11:15.242Z,27.43
2018-08-12T11:12:15.351Z,27.42
2018-08-12T11:13:15.448Z,27.35
2018-08-12T11:14:15.549Z,27.35
2018-08-12T11:15:15.639Z,27.29
2018-08-12T11:16:15.749Z,27.19
2018-08-12T11:17:15.849Z,27.16
2018-08-12T11:18:15.948Z,27.21
2018-08-12T11:19:16.052Z,27.35
2018-08-12T11:20:16.226Z,27.29
2018-08-12T11:21:16.257Z,26.98
2018-08-12T11:22:16.357Z,26.80
2018-08-12T11:23:16.460Z,26.67
2018-08-12T11:24:16.572Z,26.89
2018-08-12T11:25:16.660Z,26.96
2018-08-12T11:26:16.773Z,27.01
2018-08-12T11:27:16.873Z,27.05
2018-08-12T11:28:16.977Z,27.26
2018-08-12T11:29:17.082Z,27.16
2018-08-12T11:30:17.180Z,27.19
2018-08-12T11:31:17.286Z,27.41
2018-08-12T11:32:17.387Z,27.39
2018-08-12T11:33:17.490Z,27.46
2018-08-12T11:34:17.593Z,27.53
2018-08-12T11:35:17.696Z,27.71
2018-08-12T11:36:17.800Z,27.73
2018-08-12T11:37:17.906Z,27.74
2018-08-12T11:38:18.008Z,27.76
2018-08-12T11:39:18.112Z,27.84
2018-08-12T11:40:18.210Z,27.80
2018-08-12T11:41:18.410Z,27.86
2018-08-12T11:42:18.416Z,27.94
2018-08-12T11:43:18.520Z,27.95
2018-08-12T11:44:18.625Z,27.94
2018-08-12T11:45:18.724Z,28.06
2018-08-12T11:46:18.834Z,28.06
2018-08-12T11:47:18.941Z,28.07
2018-08-12T11:48:19.029Z,27.99
2018-08-12T11:49:19.129Z,27.94
2018-08-12T11:50:19.231Z,28.06
2018-08-12T11:51:19.336Z,28.09
2018-08-12T11:52:19.443Z,27.92
2018-08-12T11:53:19.543Z,27.82
2018-08-12T11:54:19.648Z,27.94
2018-08-12T11:55:19.746Z,27.96
2018-08-12T11:56:19.845Z,27.96
2018-08-12T11:57:19.948Z,28.03
2018-08-12T11:58:20.055Z,28.11
2018-08-12T11:59:20.157Z,28.14
2018-08-12T12:00:20.258Z,28.28
2018-08-12T12:01:20.364Z,28.28
2018-08-12T12:02:20.463Z,28.29
2018-08-12T12:03:20.563Z,28.29
2018-08-12T12:04:20.687Z,28.36
2018-08-12T12:05:20.774Z,28.32
2018-08-12T12:06:20.875Z,28.44
2018-08-12T12:07:20.977Z,28.25
2018-08-12T12:08:21.081Z,28.33
2018-08-12T12:09:21.177Z,28.47
2018-08-12T12:10:21.278Z,28.36
2018-08-12T12:11:21.382Z,28.31
2018-08-12T12:12:21.486Z,28.32
2018-08-12T12:13:21.589Z,28.40
2018-08-12T12:14:21.692Z,28.48
2018-08-12T12:15:21.799Z,28.33
2018-08-12T12:16:21.902Z,28.48
2018-08-12T12:17:22.003Z,28.47
2018-08-12T12:18:22.107Z,28.48
2018-08-12T12:19:22.211Z,28.46
2018-08-12T12:20:22.356Z,28.40
2018-08-12T12:21:22.417Z,28.44
2018-08-12T12:22:22.521Z,28.54
2018-08-12T12:23:22.629Z,28.62
2018-08-12T12:24:22.732Z,28.53
2018-08-12T12:25:22.834Z,28.59
2018-08-12T12:26:22.942Z,28.51
2018-08-12T12:27:23.047Z,28.50
2018-08-12T12:28:23.148Z,28.47
2018-08-12T12:29:23.253Z,28.51
2018-08-12T12:30:23.352Z,28.59
2018-08-12T12:31:23.457Z,28.60
2018-08-12T12:32:23.561Z,28.62
2018-08-12T12:33:23.664Z,28.66
2018-08-12T12:34:23.766Z,28.68
2018-08-12T12:35:23.880Z,28.72
2018-08-12T12:36:23.974Z,28.73
2018-08-12T12:37:24.098Z,28.72
2018-08-12T12:38:24.203Z,28.62
2018-08-12T12:39:24.305Z,28.69
2018-08-12T12:40:24.411Z,28.56
2018-08-12T12:41:24.517Z,28.59
2018-08-12T12:42:24.620Z,28.75
2018-08-12T12:43:24.719Z,28.85
2018-08-12T12:44:24.823Z,28.88
2018-08-12T12:45:24.927Z,29.00
2018-08-12T12:46:25.030Z,29.00
2018-08-12T12:47:25.134Z,29.08
2018-08-12T12:48:25.236Z,29.15
2018-08-12T12:49:25.344Z,29.16
2018-08-12T12:50:25.510Z,29.07
2018-08-12T12:51:25.548Z,29.10
2018-08-12T12:52:25.653Z,29.15
2018-08-12T12:53:25.758Z,29.00